sensor_id;sensor_type;location;lat;lon;timestamp;P1;durP1;ratioP1;P2;durP2;ratioP2
18776;SDS011;9517;51.174;4.160;2023-02-26T00:01:11;23.93;;;5.20;;
18776;SDS011;9517;51.174;4.160;2023-02-26T00:03:39;14.87;;;3.77;;
18776;SDS011;9517;51.174;4.160;2023-02-26T00:06:06;18.20;;;3.93;;
18776;SDS011;9517;51.174;4.160;2023-02-26T00:08:34;21.67;;;3.93;;
18776;SDS011;9517;51.174;4.160;2023-02-26T00:11:04;15.43;;;4.10;;
18776;SDS011;9517;51.174;4.160;2023-02-26T00:13:33;17.30;;;3.90;;
18776;SDS011;9517;51.174;4.160;2023-02-26T00:16:09;13.10;;;3.43;;
18776;SDS011;9517;51.174;4.160;2023-02-26T00:18:46;21.07;;;4.43;;
18776;SDS011;9517;51.174;4.160;2023-02-26T00:21:15;24.70;;;4.83;;
18776;SDS011;9517;51.174;4.160;2023-02-26T00:23:43;20.57;;;4.00;;
18776;SDS011;9517;51.174;4.160;2023-02-26T00:26:10;17.10;;;3.83;;
18776;SDS011;9517;51.174;4.160;2023-02-26T00:28:38;15.63;;;4.10;;
18776;SDS011;9517;51.174;4.160;2023-02-26T00:31:08;14.00;;;3.77;;
18776;SDS011;9517;51.174;4.160;2023-02-26T00:33:36;22.50;;;4.03;;
18776;SDS011;9517;51.174;4.160;2023-02-26T00:36:08;15.03;;;4.40;;
18776;SDS011;9517;51.174;4.160;2023-02-26T00:38:44;17.83;;;3.90;;
18776;SDS011;9517;51.174;4.160;2023-02-26T00:41:29;15.80;;;3.90;;
18776;SDS011;9517;51.174;4.160;2023-02-26T00:43:56;12.60;;;3.73;;
18776;SDS011;9517;51.174;4.160;2023-02-26T00:46:27;22.30;;;3.80;;
18776;SDS011;9517;51.174;4.160;2023-02-26T00:49:07;16.30;;;3.80;;
18776;SDS011;9517;51.174;4.160;2023-02-26T00:51:45;19.97;;;3.90;;
18776;SDS011;9517;51.174;4.160;2023-02-26T00:54:16;12.77;;;3.83;;
18776;SDS011;9517;51.174;4.160;2023-02-26T00:56:45;13.27;;;3.50;;
18776;SDS011;9517;51.174;4.160;2023-02-26T00:59:13;13.43;;;4.03;;
18776;SDS011;9517;51.174;4.160;2023-02-26T01:01:42;16.50;;;3.67;;
18776;SDS011;9517;51.174;4.160;2023-02-26T01:04:09;13.83;;;3.33;;
18776;SDS011;9517;51.174;4.160;2023-02-26T01:06:39;18.23;;;3.90;;
18776;SDS011;9517;51.174;4.160;2023-02-26T01:09:10;17.13;;;3.43;;
18776;SDS011;9517;51.174;4.160;2023-02-26T01:11:43;13.30;;;3.47;;
18776;SDS011;9517;51.174;4.160;2023-02-26T01:14:11;14.23;;;3.20;;
18776;SDS011;9517;51.174;4.160;2023-02-26T01:16:43;13.20;;;3.10;;
18776;SDS011;9517;51.174;4.160;2023-02-26T01:19:18;22.87;;;3.93;;
18776;SDS011;9517;51.174;4.160;2023-02-26T01:21:53;13.30;;;3.20;;
18776;SDS011;9517;51.174;4.160;2023-02-26T01:24:27;12.87;;;3.17;;
18776;SDS011;9517;51.174;4.160;2023-02-26T01:26:56;14.60;;;3.43;;
18776;SDS011;9517;51.174;4.160;2023-02-26T01:29:24;19.30;;;2.87;;
18776;SDS011;9517;51.174;4.160;2023-02-26T01:31:55;15.77;;;3.20;;
18776;SDS011;9517;51.174;4.160;2023-02-26T01:34:28;14.23;;;3.10;;
18776;SDS011;9517;51.174;4.160;2023-02-26T01:37:03;15.87;;;2.87;;
18776;SDS011;9517;51.174;4.160;2023-02-26T01:39:38;14.03;;;3.33;;
18776;SDS011;9517;51.174;4.160;2023-02-26T01:42:11;13.70;;;3.30;;
18776;SDS011;9517;51.174;4.160;2023-02-26T01:44:47;13.67;;;3.10;;
18776;SDS011;9517;51.174;4.160;2023-02-26T01:47:25;11.93;;;3.03;;
18776;SDS011;9517;51.174;4.160;2023-02-26T01:50:00;18.27;;;3.40;;
18776;SDS011;9517;51.174;4.160;2023-02-26T01:55:46;16.20;;;3.20;;
18776;SDS011;9517;51.174;4.160;2023-02-26T01:58:16;16.70;;;3.83;;
18776;SDS011;9517;51.174;4.160;2023-02-26T02:00:45;15.53;;;3.50;;
18776;SDS011;9517;51.174;4.160;2023-02-26T02:03:14;13.43;;;3.67;;
18776;SDS011;9517;51.174;4.160;2023-02-26T02:05:42;13.80;;;3.53;;
18776;SDS011;9517;51.174;4.160;2023-02-26T02:08:14;15.67;;;4.23;;
18776;SDS011;9517;51.174;4.160;2023-02-26T02:10:41;14.37;;;3.50;;
18776;SDS011;9517;51.174;4.160;2023-02-26T02:13:15;18.40;;;3.90;;
18776;SDS011;9517;51.174;4.160;2023-02-26T02:15:53;21.23;;;4.73;;
18776;SDS011;9517;51.174;4.160;2023-02-26T02:18:33;15.47;;;4.07;;
18776;SDS011;9517;51.174;4.160;2023-02-26T02:21:14;16.13;;;5.00;;
18776;SDS011;9517;51.174;4.160;2023-02-26T02:23:54;15.50;;;3.87;;
18776;SDS011;9517;51.174;4.160;2023-02-26T02:26:44;22.13;;;5.40;;
18776;SDS011;9517;51.174;4.160;2023-02-26T02:32:17;14.90;;;4.10;;
18776;SDS011;9517;51.174;4.160;2023-02-26T02:34:48;11.57;;;3.70;;
18776;SDS011;9517;51.174;4.160;2023-02-26T02:37:20;14.10;;;4.27;;
18776;SDS011;9517;51.174;4.160;2023-02-26T02:39:51;16.57;;;4.10;;
18776;SDS011;9517;51.174;4.160;2023-02-26T02:42:23;19.53;;;3.83;;
18776;SDS011;9517;51.174;4.160;2023-02-26T02:44:55;16.33;;;3.73;;
18776;SDS011;9517;51.174;4.160;2023-02-26T02:47:27;17.63;;;3.60;;
18776;SDS011;9517;51.174;4.160;2023-02-26T02:50:01;14.80;;;2.73;;
18776;SDS011;9517;51.174;4.160;2023-02-26T02:52:35;13.60;;;2.47;;
18776;SDS011;9517;51.174;4.160;2023-02-26T02:55:09;11.37;;;2.30;;
18776;SDS011;9517;51.174;4.160;2023-02-26T02:57:42;16.23;;;2.70;;
18776;SDS011;9517;51.174;4.160;2023-02-26T03:00:13;15.50;;;2.20;;
18776;SDS011;9517;51.174;4.160;2023-02-26T03:02:47;13.07;;;2.40;;
18776;SDS011;9517;51.174;4.160;2023-02-26T03:05:17;13.47;;;2.17;;
18776;SDS011;9517;51.174;4.160;2023-02-26T03:07:46;13.33;;;1.93;;
18776;SDS011;9517;51.174;4.160;2023-02-26T03:10:17;17.43;;;2.57;;
18776;SDS011;9517;51.174;4.160;2023-02-26T03:12:45;12.03;;;2.23;;
18776;SDS011;9517;51.174;4.160;2023-02-26T03:15:12;9.83;;;2.00;;
18776;SDS011;9517;51.174;4.160;2023-02-26T03:17:46;9.87;;;2.00;;
18776;SDS011;9517;51.174;4.160;2023-02-26T03:20:23;15.13;;;1.97;;
18776;SDS011;9517;51.174;4.160;2023-02-26T03:22:57;13.60;;;1.83;;
18776;SDS011;9517;51.174;4.160;2023-02-26T03:25:34;13.50;;;2.47;;
18776;SDS011;9517;51.174;4.160;2023-02-26T03:28:10;11.27;;;2.00;;
18776;SDS011;9517;51.174;4.160;2023-02-26T03:30:47;9.03;;;1.73;;
18776;SDS011;9517;51.174;4.160;2023-02-26T03:33:23;10.73;;;1.50;;
18776;SDS011;9517;51.174;4.160;2023-02-26T03:35:54;13.77;;;2.07;;
18776;SDS011;9517;51.174;4.160;2023-02-26T03:38:26;8.23;;;1.70;;
18776;SDS011;9517;51.174;4.160;2023-02-26T03:40:59;10.20;;;1.40;;
18776;SDS011;9517;51.174;4.160;2023-02-26T03:43:31;11.60;;;1.73;;
18776;SDS011;9517;51.174;4.160;2023-02-26T03:46:03;8.87;;;1.50;;
18776;SDS011;9517;51.174;4.160;2023-02-26T03:48:34;10.50;;;1.50;;
18776;SDS011;9517;51.174;4.160;2023-02-26T03:51:03;11.03;;;1.60;;
18776;SDS011;9517;51.174;4.160;2023-02-26T03:53:35;12.17;;;1.90;;
18776;SDS011;9517;51.174;4.160;2023-02-26T03:56:16;14.47;;;1.80;;
18776;SDS011;9517;51.174;4.160;2023-02-26T03:58:51;8.50;;;1.60;;
18776;SDS011;9517;51.174;4.160;2023-02-26T04:01:19;7.93;;;1.53;;
18776;SDS011;9517;51.174;4.160;2023-02-26T04:04:01;8.57;;;1.30;;
18776;SDS011;9517;51.174;4.160;2023-02-26T04:06:31;8.97;;;1.63;;
18776;SDS011;9517;51.174;4.160;2023-02-26T04:08:59;13.83;;;1.80;;
18776;SDS011;9517;51.174;4.160;2023-02-26T04:11:27;11.97;;;1.60;;
18776;SDS011;9517;51.174;4.160;2023-02-26T04:13:55;9.93;;;1.40;;
18776;SDS011;9517;51.174;4.160;2023-02-26T04:16:23;12.53;;;1.50;;
18776;SDS011;9517;51.174;4.160;2023-02-26T04:18:50;14.13;;;1.57;;
18776;SDS011;9517;51.174;4.160;2023-02-26T04:21:19;10.03;;;1.43;;
18776;SDS011;9517;51.174;4.160;2023-02-26T04:23:48;10.93;;;1.77;;
18776;SDS011;9517;51.174;4.160;2023-02-26T04:26:15;9.47;;;1.60;;
18776;SDS011;9517;51.174;4.160;2023-02-26T04:28:42;11.43;;;2.13;;
18776;SDS011;9517;51.174;4.160;2023-02-26T04:31:09;8.33;;;1.97;;
18776;SDS011;9517;51.174;4.160;2023-02-26T04:33:36;8.87;;;1.40;;
18776;SDS011;9517;51.174;4.160;2023-02-26T04:36:04;12.60;;;1.43;;
18776;SDS011;9517;51.174;4.160;2023-02-26T04:38:33;12.23;;;2.63;;
18776;SDS011;9517;51.174;4.160;2023-02-26T04:41:00;10.43;;;1.57;;
18776;SDS011;9517;51.174;4.160;2023-02-26T04:43:28;13.43;;;1.53;;
18776;SDS011;9517;51.174;4.160;2023-02-26T04:45:55;7.27;;;1.30;;
18776;SDS011;9517;51.174;4.160;2023-02-26T04:48:22;9.57;;;1.30;;
18776;SDS011;9517;51.174;4.160;2023-02-26T04:50:49;15.10;;;1.93;;
18776;SDS011;9517;51.174;4.160;2023-02-26T04:53:16;12.87;;;1.50;;
18776;SDS011;9517;51.174;4.160;2023-02-26T04:55:46;11.53;;;1.27;;
18776;SDS011;9517;51.174;4.160;2023-02-26T04:58:13;10.53;;;1.77;;
18776;SDS011;9517;51.174;4.160;2023-02-26T05:00:41;10.23;;;1.20;;
18776;SDS011;9517;51.174;4.160;2023-02-26T05:03:09;8.70;;;1.20;;
18776;SDS011;9517;51.174;4.160;2023-02-26T05:05:37;12.87;;;1.50;;
18776;SDS011;9517;51.174;4.160;2023-02-26T05:08:04;12.07;;;1.77;;
18776;SDS011;9517;51.174;4.160;2023-02-26T05:10:31;13.77;;;1.87;;
18776;SDS011;9517;51.174;4.160;2023-02-26T05:13:00;14.23;;;1.37;;
18776;SDS011;9517;51.174;4.160;2023-02-26T05:15:27;10.47;;;1.90;;
18776;SDS011;9517;51.174;4.160;2023-02-26T05:17:54;10.60;;;1.30;;
18776;SDS011;9517;51.174;4.160;2023-02-26T05:20:21;10.23;;;1.57;;
18776;SDS011;9517;51.174;4.160;2023-02-26T05:22:48;10.60;;;1.73;;
18776;SDS011;9517;51.174;4.160;2023-02-26T05:25:15;10.33;;;1.40;;
18776;SDS011;9517;51.174;4.160;2023-02-26T05:27:43;5.90;;;1.10;;
18776;SDS011;9517;51.174;4.160;2023-02-26T05:30:12;8.33;;;1.17;;
18776;SDS011;9517;51.174;4.160;2023-02-26T05:32:42;9.77;;;1.30;;
18776;SDS011;9517;51.174;4.160;2023-02-26T05:35:09;8.43;;;1.40;;
18776;SDS011;9517;51.174;4.160;2023-02-26T05:37:36;7.83;;;1.10;;
18776;SDS011;9517;51.174;4.160;2023-02-26T05:40:05;5.77;;;1.20;;
18776;SDS011;9517;51.174;4.160;2023-02-26T05:42:34;10.70;;;1.27;;
18776;SDS011;9517;51.174;4.160;2023-02-26T05:45:02;5.23;;;1.13;;
18776;SDS011;9517;51.174;4.160;2023-02-26T05:47:31;9.77;;;1.40;;
18776;SDS011;9517;51.174;4.160;2023-02-26T05:49:59;4.40;;;0.80;;
18776;SDS011;9517;51.174;4.160;2023-02-26T05:52:26;8.73;;;1.20;;
18776;SDS011;9517;51.174;4.160;2023-02-26T05:54:53;8.17;;;1.10;;
18776;SDS011;9517;51.174;4.160;2023-02-26T05:57:21;10.33;;;1.20;;
18776;SDS011;9517;51.174;4.160;2023-02-26T05:59:48;9.17;;;1.30;;
18776;SDS011;9517;51.174;4.160;2023-02-26T06:02:16;12.37;;;1.30;;
18776;SDS011;9517;51.174;4.160;2023-02-26T06:04:45;7.70;;;1.30;;
18776;SDS011;9517;51.174;4.160;2023-02-26T06:07:12;13.10;;;1.40;;
18776;SDS011;9517;51.174;4.160;2023-02-26T06:09:39;10.40;;;1.20;;
18776;SDS011;9517;51.174;4.160;2023-02-26T06:12:06;8.73;;;1.33;;
18776;SDS011;9517;51.174;4.160;2023-02-26T06:14:34;5.13;;;1.03;;
18776;SDS011;9517;51.174;4.160;2023-02-26T06:17:03;8.97;;;1.40;;
18776;SDS011;9517;51.174;4.160;2023-02-26T06:19:34;9.80;;;1.70;;
18776;SDS011;9517;51.174;4.160;2023-02-26T06:22:40;10.67;;;1.40;;
18776;SDS011;9517;51.174;4.160;2023-02-26T06:25:17;9.30;;;1.43;;
18776;SDS011;9517;51.174;4.160;2023-02-26T06:28:18;8.27;;;1.30;;
18776;SDS011;9517;51.174;4.160;2023-02-26T06:31:07;8.27;;;1.03;;
18776;SDS011;9517;51.174;4.160;2023-02-26T06:40:44;11.03;;;1.80;;
18776;SDS011;9517;51.174;4.160;2023-02-26T06:43:19;8.57;;;1.50;;
18776;SDS011;9517;51.174;4.160;2023-02-26T06:45:49;9.03;;;1.63;;
18776;SDS011;9517;51.174;4.160;2023-02-26T06:48:16;8.57;;;1.33;;
18776;SDS011;9517;51.174;4.160;2023-02-26T06:50:44;8.43;;;1.43;;
18776;SDS011;9517;51.174;4.160;2023-02-26T06:53:11;10.07;;;1.77;;
18776;SDS011;9517;51.174;4.160;2023-02-26T06:55:41;9.07;;;1.47;;
18776;SDS011;9517;51.174;4.160;2023-02-26T06:58:11;10.90;;;1.73;;
18776;SDS011;9517;51.174;4.160;2023-02-26T07:00:39;9.17;;;1.50;;
18776;SDS011;9517;51.174;4.160;2023-02-26T07:03:06;13.80;;;1.57;;
18776;SDS011;9517;51.174;4.160;2023-02-26T07:05:35;10.43;;;1.90;;
18776;SDS011;9517;51.174;4.160;2023-02-26T07:08:02;8.47;;;1.73;;
18776;SDS011;9517;51.174;4.160;2023-02-26T07:10:30;8.77;;;1.50;;
18776;SDS011;9517;51.174;4.160;2023-02-26T07:12:59;8.87;;;1.37;;
18776;SDS011;9517;51.174;4.160;2023-02-26T07:15:27;7.37;;;1.30;;
18776;SDS011;9517;51.174;4.160;2023-02-26T07:17:55;9.20;;;1.27;;
18776;SDS011;9517;51.174;4.160;2023-02-26T07:20:24;16.63;;;2.37;;
18776;SDS011;9517;51.174;4.160;2023-02-26T07:22:51;11.03;;;1.67;;
18776;SDS011;9517;51.174;4.160;2023-02-26T07:25:19;12.93;;;1.60;;
18776;SDS011;9517;51.174;4.160;2023-02-26T07:27:46;14.77;;;1.40;;
18776;SDS011;9517;51.174;4.160;2023-02-26T07:30:16;6.00;;;1.00;;
18776;SDS011;9517;51.174;4.160;2023-02-26T07:32:44;13.53;;;1.53;;
18776;SDS011;9517;51.174;4.160;2023-02-26T07:35:11;8.80;;;1.30;;
18776;SDS011;9517;51.174;4.160;2023-02-26T07:37:38;7.70;;;1.30;;
18776;SDS011;9517;51.174;4.160;2023-02-26T07:40:06;6.50;;;1.40;;
18776;SDS011;9517;51.174;4.160;2023-02-26T07:42:35;8.03;;;1.40;;
18776;SDS011;9517;51.174;4.160;2023-02-26T07:45:05;12.00;;;1.47;;
18776;SDS011;9517;51.174;4.160;2023-02-26T07:47:35;9.07;;;1.50;;
18776;SDS011;9517;51.174;4.160;2023-02-26T07:50:03;9.27;;;1.10;;
18776;SDS011;9517;51.174;4.160;2023-02-26T07:52:32;6.63;;;1.40;;
18776;SDS011;9517;51.174;4.160;2023-02-26T07:55:02;10.33;;;1.73;;
18776;SDS011;9517;51.174;4.160;2023-02-26T07:57:30;8.70;;;1.30;;
18776;SDS011;9517;51.174;4.160;2023-02-26T08:00:03;11.17;;;1.67;;
18776;SDS011;9517;51.174;4.160;2023-02-26T08:02:40;7.50;;;1.07;;
18776;SDS011;9517;51.174;4.160;2023-02-26T08:05:15;8.17;;;1.17;;
18776;SDS011;9517;51.174;4.160;2023-02-26T08:08:04;6.83;;;1.23;;
18776;SDS011;9517;51.174;4.160;2023-02-26T08:10:31;5.27;;;1.00;;
18776;SDS011;9517;51.174;4.160;2023-02-26T08:12:58;6.63;;;1.00;;
18776;SDS011;9517;51.174;4.160;2023-02-26T08:15:25;7.57;;;1.20;;
18776;SDS011;9517;51.174;4.160;2023-02-26T08:17:54;6.30;;;0.97;;
18776;SDS011;9517;51.174;4.160;2023-02-26T08:20:21;6.17;;;1.30;;
18776;SDS011;9517;51.174;4.160;2023-02-26T08:22:49;6.40;;;0.97;;
18776;SDS011;9517;51.174;4.160;2023-02-26T08:25:16;5.90;;;1.10;;
18776;SDS011;9517;51.174;4.160;2023-02-26T08:27:44;5.47;;;1.00;;
18776;SDS011;9517;51.174;4.160;2023-02-26T08:30:20;5.53;;;1.00;;
18776;SDS011;9517;51.174;4.160;2023-02-26T08:32:47;10.80;;;1.33;;
18776;SDS011;9517;51.174;4.160;2023-02-26T08:35:15;8.30;;;1.07;;
18776;SDS011;9517;51.174;4.160;2023-02-26T08:37:43;3.63;;;1.07;;
18776;SDS011;9517;51.174;4.160;2023-02-26T08:40:10;5.77;;;1.13;;
18776;SDS011;9517;51.174;4.160;2023-02-26T08:42:38;4.13;;;0.97;;
18776;SDS011;9517;51.174;4.160;2023-02-26T08:45:05;5.23;;;0.83;;
18776;SDS011;9517;51.174;4.160;2023-02-26T08:47:33;5.83;;;1.10;;
18776;SDS011;9517;51.174;4.160;2023-02-26T08:50:01;8.83;;;1.10;;
18776;SDS011;9517;51.174;4.160;2023-02-26T08:52:33;5.43;;;1.00;;
18776;SDS011;9517;51.174;4.160;2023-02-26T08:55:00;7.87;;;1.10;;
18776;SDS011;9517;51.174;4.160;2023-02-26T08:57:29;7.10;;;1.23;;
18776;SDS011;9517;51.174;4.160;2023-02-26T08:59:56;8.10;;;1.00;;
18776;SDS011;9517;51.174;4.160;2023-02-26T09:02:23;6.97;;;1.33;;
18776;SDS011;9517;51.174;4.160;2023-02-26T09:04:50;9.90;;;1.20;;
18776;SDS011;9517;51.174;4.160;2023-02-26T09:07:18;10.43;;;1.27;;
18776;SDS011;9517;51.174;4.160;2023-02-26T09:09:47;5.23;;;0.90;;
18776;SDS011;9517;51.174;4.160;2023-02-26T09:12:14;8.63;;;1.00;;
18776;SDS011;9517;51.174;4.160;2023-02-26T09:14:41;7.37;;;1.30;;
18776;SDS011;9517;51.174;4.160;2023-02-26T09:17:08;6.13;;;1.07;;
18776;SDS011;9517;51.174;4.160;2023-02-26T09:19:35;6.83;;;0.80;;
18776;SDS011;9517;51.174;4.160;2023-02-26T09:22:03;9.33;;;1.17;;
18776;SDS011;9517;51.174;4.160;2023-02-26T09:24:30;7.60;;;1.00;;
18776;SDS011;9517;51.174;4.160;2023-02-26T09:26:58;5.30;;;0.97;;
18776;SDS011;9517;51.174;4.160;2023-02-26T09:29:27;6.67;;;0.90;;
18776;SDS011;9517;51.174;4.160;2023-02-26T09:31:54;6.63;;;0.90;;
18776;SDS011;9517;51.174;4.160;2023-02-26T09:34:24;8.10;;;1.20;;
18776;SDS011;9517;51.174;4.160;2023-02-26T09:36:51;9.67;;;1.13;;
18776;SDS011;9517;51.174;4.160;2023-02-26T09:39:18;5.00;;;0.73;;
18776;SDS011;9517;51.174;4.160;2023-02-26T09:41:48;7.47;;;1.20;;
18776;SDS011;9517;51.174;4.160;2023-02-26T09:44:21;8.03;;;0.97;;
18776;SDS011;9517;51.174;4.160;2023-02-26T09:46:52;7.57;;;1.00;;
18776;SDS011;9517;51.174;4.160;2023-02-26T09:49:29;3.63;;;1.00;;
18776;SDS011;9517;51.174;4.160;2023-02-26T09:52:07;7.20;;;1.33;;
18776;SDS011;9517;51.174;4.160;2023-02-26T09:54:44;5.87;;;1.00;;
18776;SDS011;9517;51.174;4.160;2023-02-26T09:57:20;5.23;;;0.70;;
18776;SDS011;9517;51.174;4.160;2023-02-26T09:59:56;7.50;;;1.00;;
18776;SDS011;9517;51.174;4.160;2023-02-26T10:02:28;2.97;;;0.70;;
18776;SDS011;9517;51.174;4.160;2023-02-26T10:05:07;6.70;;;1.10;;
18776;SDS011;9517;51.174;4.160;2023-02-26T10:07:44;6.03;;;0.90;;
18776;SDS011;9517;51.174;4.160;2023-02-26T10:10:21;6.90;;;1.10;;
18776;SDS011;9517;51.174;4.160;2023-02-26T10:12:55;3.30;;;0.77;;
18776;SDS011;9517;51.174;4.160;2023-02-26T10:15:27;7.13;;;1.47;;
18776;SDS011;9517;51.174;4.160;2023-02-26T10:18:00;7.00;;;0.97;;
18776;SDS011;9517;51.174;4.160;2023-02-26T10:20:33;13.37;;;1.50;;
18776;SDS011;9517;51.174;4.160;2023-02-26T10:23:05;7.53;;;1.17;;
18776;SDS011;9517;51.174;4.160;2023-02-26T10:25:41;6.17;;;1.37;;
18776;SDS011;9517;51.174;4.160;2023-02-26T10:28:23;3.77;;;0.87;;
18776;SDS011;9517;51.174;4.160;2023-02-26T10:31:04;9.83;;;0.93;;
18776;SDS011;9517;51.174;4.160;2023-02-26T10:33:37;6.43;;;1.00;;
18776;SDS011;9517;51.174;4.160;2023-02-26T10:36:16;7.83;;;1.20;;
18776;SDS011;9517;51.174;4.160;2023-02-26T10:38:51;3.53;;;0.80;;
18776;SDS011;9517;51.174;4.160;2023-02-26T10:41:24;5.03;;;0.90;;
18776;SDS011;9517;51.174;4.160;2023-02-26T10:43:57;6.00;;;0.90;;
18776;SDS011;9517;51.174;4.160;2023-02-26T10:46:36;6.73;;;1.00;;
18776;SDS011;9517;51.174;4.160;2023-02-26T10:52:12;6.43;;;0.90;;
18776;SDS011;9517;51.174;4.160;2023-02-26T10:54:44;4.60;;;1.00;;
18776;SDS011;9517;51.174;4.160;2023-02-26T10:57:20;4.50;;;0.80;;
18776;SDS011;9517;51.174;4.160;2023-02-26T10:59:50;6.13;;;1.03;;
18776;SDS011;9517;51.174;4.160;2023-02-26T11:02:28;6.83;;;1.00;;
18776;SDS011;9517;51.174;4.160;2023-02-26T11:05:03;6.80;;;1.27;;
18776;SDS011;9517;51.174;4.160;2023-02-26T11:07:38;5.07;;;1.10;;
18776;SDS011;9517;51.174;4.160;2023-02-26T11:10:12;5.77;;;1.10;;
18776;SDS011;9517;51.174;4.160;2023-02-26T11:12:41;3.60;;;0.73;;
18776;SDS011;9517;51.174;4.160;2023-02-26T11:15:11;6.23;;;0.80;;
18776;SDS011;9517;51.174;4.160;2023-02-26T11:17:41;6.13;;;0.90;;
18776;SDS011;9517;51.174;4.160;2023-02-26T11:20:19;3.43;;;0.83;;
18776;SDS011;9517;51.174;4.160;2023-02-26T11:22:54;4.97;;;0.80;;
18776;SDS011;9517;51.174;4.160;2023-02-26T11:25:26;6.23;;;0.80;;
18776;SDS011;9517;51.174;4.160;2023-02-26T11:28:00;4.13;;;0.90;;
18776;SDS011;9517;51.174;4.160;2023-02-26T11:30:30;7.73;;;1.23;;
18776;SDS011;9517;51.174;4.160;2023-02-26T11:33:06;5.37;;;1.03;;
18776;SDS011;9517;51.174;4.160;2023-02-26T11:35:42;6.37;;;1.10;;
18776;SDS011;9517;51.174;4.160;2023-02-26T11:38:13;5.33;;;1.03;;
18776;SDS011;9517;51.174;4.160;2023-02-26T11:40:45;3.00;;;0.93;;
18776;SDS011;9517;51.174;4.160;2023-02-26T11:43:15;5.73;;;0.80;;
18776;SDS011;9517;51.174;4.160;2023-02-26T11:45:45;8.07;;;1.13;;
18776;SDS011;9517;51.174;4.160;2023-02-26T11:48:20;9.87;;;1.20;;
18776;SDS011;9517;51.174;4.160;2023-02-26T11:50:52;4.97;;;1.00;;
18776;SDS011;9517;51.174;4.160;2023-02-26T11:53:24;4.70;;;0.80;;
18776;SDS011;9517;51.174;4.160;2023-02-26T11:55:58;4.33;;;0.90;;
18776;SDS011;9517;51.174;4.160;2023-02-26T11:58:27;4.20;;;0.90;;
18776;SDS011;9517;51.174;4.160;2023-02-26T12:00:57;6.93;;;1.00;;
18776;SDS011;9517;51.174;4.160;2023-02-26T12:03:30;4.57;;;1.03;;
18776;SDS011;9517;51.174;4.160;2023-02-26T12:05:58;5.33;;;0.80;;
18776;SDS011;9517;51.174;4.160;2023-02-26T12:08:29;5.23;;;1.07;;
18776;SDS011;9517;51.174;4.160;2023-02-26T12:11:12;6.17;;;1.10;;
18776;SDS011;9517;51.174;4.160;2023-02-26T12:14:12;5.93;;;1.00;;
18776;SDS011;9517;51.174;4.160;2023-02-26T12:16:59;4.70;;;0.90;;
18776;SDS011;9517;51.174;4.160;2023-02-26T12:19:39;3.90;;;0.63;;
18776;SDS011;9517;51.174;4.160;2023-02-26T12:22:16;3.27;;;0.90;;
18776;SDS011;9517;51.174;4.160;2023-02-26T12:25:04;3.17;;;0.80;;
18776;SDS011;9517;51.174;4.160;2023-02-26T12:33:51;3.53;;;0.93;;
18776;SDS011;9517;51.174;4.160;2023-02-26T12:36:31;3.57;;;0.73;;
18776;SDS011;9517;51.174;4.160;2023-02-26T12:39:13;4.53;;;0.80;;
18776;SDS011;9517;51.174;4.160;2023-02-26T12:41:55;8.33;;;1.20;;
18776;SDS011;9517;51.174;4.160;2023-02-26T12:47:34;3.17;;;0.80;;
18776;SDS011;9517;51.174;4.160;2023-02-26T12:50:25;3.80;;;0.60;;
18776;SDS011;9517;51.174;4.160;2023-02-26T12:53:06;2.67;;;0.80;;
18776;SDS011;9517;51.174;4.160;2023-02-26T12:55:58;4.43;;;1.17;;
18776;SDS011;9517;51.174;4.160;2023-02-26T12:58:38;5.77;;;0.90;;
18776;SDS011;9517;51.174;4.160;2023-02-26T13:01:23;4.20;;;0.80;;
18776;SDS011;9517;51.174;4.160;2023-02-26T13:04:14;5.03;;;1.03;;
18776;SDS011;9517;51.174;4.160;2023-02-26T13:06:57;5.17;;;1.10;;
18776;SDS011;9517;51.174;4.160;2023-02-26T13:09:43;6.17;;;1.30;;
18776;SDS011;9517;51.174;4.160;2023-02-26T13:12:23;4.40;;;1.10;;
18776;SDS011;9517;51.174;4.160;2023-02-26T13:15:06;6.40;;;1.00;;
18776;SDS011;9517;51.174;4.160;2023-02-26T13:17:48;5.93;;;1.03;;
18776;SDS011;9517;51.174;4.160;2023-02-26T13:20:21;4.97;;;1.23;;
18776;SDS011;9517;51.174;4.160;2023-02-26T13:22:52;3.07;;;0.80;;
18776;SDS011;9517;51.174;4.160;2023-02-26T13:25:36;5.53;;;1.03;;
18776;SDS011;9517;51.174;4.160;2023-02-26T13:28:18;5.80;;;1.00;;
18776;SDS011;9517;51.174;4.160;2023-02-26T13:30:48;6.13;;;0.90;;
18776;SDS011;9517;51.174;4.160;2023-02-26T13:33:20;4.67;;;0.80;;
18776;SDS011;9517;51.174;4.160;2023-02-26T13:35:53;3.50;;;0.70;;
18776;SDS011;9517;51.174;4.160;2023-02-26T13:38:23;4.83;;;1.00;;
18776;SDS011;9517;51.174;4.160;2023-02-26T13:41:02;7.57;;;1.03;;
18776;SDS011;9517;51.174;4.160;2023-02-26T13:43:38;5.17;;;1.00;;
18776;SDS011;9517;51.174;4.160;2023-02-26T13:46:23;5.93;;;1.10;;
18776;SDS011;9517;51.174;4.160;2023-02-26T13:49:01;3.83;;;1.00;;
18776;SDS011;9517;51.174;4.160;2023-02-26T13:51:36;3.40;;;0.90;;
18776;SDS011;9517;51.174;4.160;2023-02-26T13:54:06;5.10;;;1.20;;
18776;SDS011;9517;51.174;4.160;2023-02-26T13:57:04;5.77;;;1.23;;
18776;SDS011;9517;51.174;4.160;2023-02-26T13:59:37;5.37;;;1.13;;
18776;SDS011;9517;51.174;4.160;2023-02-26T14:05:26;4.67;;;1.20;;
18776;SDS011;9517;51.174;4.160;2023-02-26T14:10:53;5.97;;;0.90;;
18776;SDS011;9517;51.174;4.160;2023-02-26T14:13:29;6.07;;;1.30;;
18776;SDS011;9517;51.174;4.160;2023-02-26T14:16:01;4.13;;;0.90;;
18776;SDS011;9517;51.174;4.160;2023-02-26T14:18:36;7.47;;;1.30;;
18776;SDS011;9517;51.174;4.160;2023-02-26T14:21:30;5.13;;;1.00;;
18776;SDS011;9517;51.174;4.160;2023-02-26T14:24:03;5.60;;;0.83;;
18776;SDS011;9517;51.174;4.160;2023-02-26T14:26:40;4.73;;;0.67;;
18776;SDS011;9517;51.174;4.160;2023-02-26T14:29:18;4.83;;;1.10;;
18776;SDS011;9517;51.174;4.160;2023-02-26T14:34:48;6.87;;;1.57;;
18776;SDS011;9517;51.174;4.160;2023-02-26T14:37:20;3.30;;;0.90;;
18776;SDS011;9517;51.174;4.160;2023-02-26T14:39:49;3.13;;;1.00;;
18776;SDS011;9517;51.174;4.160;2023-02-26T14:42:28;8.10;;;1.30;;
18776;SDS011;9517;51.174;4.160;2023-02-26T14:45:02;5.63;;;1.33;;
18776;SDS011;9517;51.174;4.160;2023-02-26T14:47:35;3.23;;;0.73;;
18776;SDS011;9517;51.174;4.160;2023-02-26T14:50:05;4.67;;;1.00;;
18776;SDS011;9517;51.174;4.160;2023-02-26T14:55:29;3.90;;;0.83;;
18776;SDS011;9517;51.174;4.160;2023-02-26T14:58:16;10.80;;;1.30;;
18776;SDS011;9517;51.174;4.160;2023-02-26T15:01:05;4.37;;;1.10;;
18776;SDS011;9517;51.174;4.160;2023-02-26T15:06:42;5.33;;;1.50;;
18776;SDS011;9517;51.174;4.160;2023-02-26T15:09:25;4.87;;;1.03;;
18776;SDS011;9517;51.174;4.160;2023-02-26T15:12:04;3.83;;;0.80;;
18776;SDS011;9517;51.174;4.160;2023-02-26T15:14:43;3.77;;;1.10;;
18776;SDS011;9517;51.174;4.160;2023-02-26T15:17:32;2.47;;;0.97;;
18776;SDS011;9517;51.174;4.160;2023-02-26T15:20:15;4.10;;;0.93;;
18776;SDS011;9517;51.174;4.160;2023-02-26T15:22:55;7.10;;;1.43;;
18776;SDS011;9517;51.174;4.160;2023-02-26T15:25:34;3.27;;;1.07;;
18776;SDS011;9517;51.174;4.160;2023-02-26T15:28:04;4.20;;;0.90;;
18776;SDS011;9517;51.174;4.160;2023-02-26T15:30:36;4.57;;;0.90;;
18776;SDS011;9517;51.174;4.160;2023-02-26T15:33:09;4.67;;;1.00;;
18776;SDS011;9517;51.174;4.160;2023-02-26T15:35:41;3.30;;;0.80;;
18776;SDS011;9517;51.174;4.160;2023-02-26T15:38:09;5.30;;;0.80;;
18776;SDS011;9517;51.174;4.160;2023-02-26T15:40:36;3.57;;;0.70;;
18776;SDS011;9517;51.174;4.160;2023-02-26T15:43:04;3.77;;;0.80;;
18776;SDS011;9517;51.174;4.160;2023-02-26T15:45:34;3.93;;;0.70;;
18776;SDS011;9517;51.174;4.160;2023-02-26T15:48:07;5.83;;;0.80;;
18776;SDS011;9517;51.174;4.160;2023-02-26T15:50:39;3.60;;;0.73;;
18776;SDS011;9517;51.174;4.160;2023-02-26T15:53:10;3.00;;;0.73;;
18776;SDS011;9517;51.174;4.160;2023-02-26T15:55:42;3.83;;;0.90;;
18776;SDS011;9517;51.174;4.160;2023-02-26T15:58:15;4.13;;;1.20;;
18776;SDS011;9517;51.174;4.160;2023-02-26T16:00:52;5.53;;;0.97;;
18776;SDS011;9517;51.174;4.160;2023-02-26T16:03:29;7.17;;;1.90;;
18776;SDS011;9517;51.174;4.160;2023-02-26T16:05:59;7.47;;;1.20;;
18776;SDS011;9517;51.174;4.160;2023-02-26T16:08:27;5.10;;;1.20;;